createdAt,value
2023-05-09T00:00:16.689Z,27.79
2023-05-09T00:02:49.050Z,27.41
2023-05-09T00:05:21.604Z,26.89
2023-05-09T00:07:53.833Z,27.86
2023-05-09T00:10:26.207Z,28.20
2023-05-09T00:13:01.179Z,27.84
2023-05-09T00:15:33.609Z,27.85
2023-05-09T00:18:05.794Z,27.89
2023-05-09T00:20:38.023Z,28.46
2023-05-09T00:23:10.477Z,27.89
2023-05-09T00:25:42.784Z,26.86
2023-05-09T00:28:17.566Z,26.81
2023-05-09T00:30:49.684Z,26.23
2023-05-09T00:33:21.849Z,25.81
2023-05-09T00:35:54.265Z,25.37
2023-05-09T00:38:27.559Z,25.60
2023-05-09T00:40:59.745Z,25.44
2023-05-09T00:43:34.959Z,25.69
2023-05-09T00:46:07.639Z,27.31
2023-05-09T00:48:40.251Z,26.84
2023-05-09T00:51:13.054Z,27.16
2023-05-09T00:53:45.334Z,27.85
2023-05-09T00:56:19.474Z,28.81
2023-05-09T00:58:55.731Z,28.09
2023-05-09T01:01:28.183Z,27.71
2023-05-09T01:04:00.598Z,29.77
2023-05-09T01:06:45.479Z,29.69
2023-05-09T01:09:28.691Z,29.33
2023-05-09T01:12:16.277Z,29.67
2023-05-09T01:15:02.293Z,29.23
2023-05-09T01:17:44.998Z,30.06
2023-05-09T01:20:24.896Z,29.63
2023-05-09T01:23:08.024Z,29.39
2023-05-09T01:25:59.068Z,29.16
2023-05-09T01:28:47.697Z,29.92
2023-05-09T01:31:25.202Z,30.07
2023-05-09T01:34:02.069Z,30.19
2023-05-09T01:36:38.503Z,29.96
2023-05-09T01:39:11.206Z,31.65
2023-05-09T01:41:43.897Z,32.02
2023-05-09T01:44:19.297Z,31.20
2023-05-09T01:46:56.814Z,31.34
2023-05-09T01:49:32.841Z,30.51
2023-05-09T01:52:09.495Z,31.41
2023-05-09T01:54:45.213Z,31.39
2023-05-09T01:57:18.695Z,30.73
2023-05-09T01:59:54.750Z,30.99
2023-05-09T02:02:30.980Z,30.49
2023-05-09T02:05:04.681Z,30.24
2023-05-09T02:07:39.013Z,29.97
2023-05-09T02:10:13.669Z,29.55
2023-05-09T02:12:45.951Z,30.39
2023-05-09T02:15:18.795Z,29.50
2023-05-09T02:17:53.786Z,30.35
2023-05-09T02:20:26.184Z,30.64
2023-05-09T02:22:58.517Z,31.14
2023-05-09T02:25:31.025Z,31.01
2023-05-09T02:28:05.151Z,31.06
2023-05-09T02:30:43.569Z,31.83
2023-05-09T02:33:18.802Z,32.12
2023-05-09T02:35:52.039Z,31.61
2023-05-09T02:38:25.248Z,32.10
2023-05-09T02:40:58.157Z,31.68
2023-05-09T02:43:30.457Z,31.81
2023-05-09T02:46:02.767Z,31.58
2023-05-09T02:48:37.660Z,31.36
2023-05-09T02:51:09.861Z,30.99
2023-05-09T02:53:42.062Z,29.39
2023-05-09T02:56:14.469Z,28.14
2023-05-09T02:58:51.315Z,28.34
2023-05-09T03:01:23.699Z,27.71
2023-05-09T03:03:58.640Z,27.16
2023-05-09T03:06:31.439Z,26.74
2023-05-09T03:09:03.701Z,27.45
2023-05-09T03:11:36.816Z,29.79
2023-05-09T03:14:10.936Z,29.81
2023-05-09T03:16:43.426Z,31.19
2023-05-09T03:19:18.258Z,30.53
2023-05-09T03:21:50.476Z,30.17
2023-05-09T03:24:23.346Z,30.56
2023-05-09T03:26:55.729Z,31.44
2023-05-09T03:29:27.922Z,31.10
2023-05-09T03:32:00.177Z,30.52
2023-05-09T03:34:34.972Z,31.10
2023-05-09T03:37:07.552Z,31.69
2023-05-09T03:39:39.774Z,31.04
2023-05-09T03:42:12.029Z,31.04
2023-05-09T03:44:44.187Z,31.17
2023-05-09T03:47:16.377Z,30.88
2023-05-09T03:49:51.185Z,30.90
2023-05-09T03:52:23.360Z,31.38
2023-05-09T03:54:55.609Z,30.82
2023-05-09T03:57:27.865Z,30.59
2023-05-09T04:00:00.060Z,30.79
2023-05-09T04:02:32.524Z,30.02
2023-05-09T04:05:08.024Z,29.31
2023-05-09T04:07:40.417Z,30.04
2023-05-09T04:10:14.032Z,29.38
2023-05-09T04:12:46.232Z,29.38
2023-05-09T04:15:18.683Z,28.89
2023-05-09T04:17:51.011Z,29.04
2023-05-09T04:20:26.107Z,29.63
2023-05-09T04:22:59.113Z,28.80
2023-05-09T04:25:31.795Z,28.91
2023-05-09T04:28:03.978Z,28.33
2023-05-09T04:30:36.670Z,28.05
2023-05-09T04:33:08.936Z,27.43
2023-05-09T04:35:43.807Z,26.97
2023-05-09T04:38:16.900Z,27.72
2023-05-09T04:40:49.116Z,27.20
2023-05-09T04:43:21.296Z,26.79
2023-05-09T04:45:53.595Z,26.64
2023-05-09T04:48:25.875Z,26.96
2023-05-09T04:51:00.640Z,26.59
2023-05-09T04:53:32.901Z,25.64
2023-05-09T04:56:05.519Z,25.36
2023-05-09T04:58:40.663Z,25.01
2023-05-09T05:01:12.922Z,24.94
2023-05-09T05:03:45.518Z,24.86
2023-05-09T05:06:20.473Z,24.21
2023-05-09T05:08:52.669Z,24.04
2023-05-09T05:11:24.854Z,23.77
2023-05-09T05:13:57.085Z,23.54
2023-05-09T05:16:29.504Z,23.16
2023-05-09T05:19:01.784Z,22.58
2023-05-09T05:21:36.560Z,23.05
2023-05-09T05:24:08.999Z,22.82
2023-05-09T05:26:41.566Z,22.39
2023-05-09T05:29:13.791Z,22.09
2023-05-09T05:31:45.980Z,22.11
2023-05-09T05:34:18.223Z,21.74
2023-05-09T05:36:53.216Z,22.04
2023-05-09T05:39:25.444Z,21.89
2023-05-09T05:41:57.625Z,22.02
2023-05-09T05:44:29.880Z,21.73
2023-05-09T05:47:02.182Z,20.66
2023-05-09T05:49:34.424Z,20.49
2023-05-09T05:52:09.312Z,20.38
2023-05-09T05:54:41.722Z,20.62
2023-05-09T05:57:14.137Z,19.51
2023-05-09T05:59:46.332Z,19.52
2023-05-09T06:02:18.652Z,19.59
2023-05-09T06:04:50.936Z,19.29
2023-05-09T06:07:25.986Z,18.64
2023-05-09T06:09:58.208Z,19.01
2023-05-09T06:12:30.781Z,19.44
2023-05-09T06:15:05.157Z,18.89
2023-05-09T06:17:37.987Z,19.56
2023-05-09T06:20:11.829Z,19.48
2023-05-09T06:22:46.699Z,18.94
2023-05-09T06:25:19.334Z,18.89
2023-05-09T06:27:51.606Z,18.32
2023-05-09T06:30:26.707Z,18.71
2023-05-09T06:33:00.889Z,19.63
2023-05-09T06:35:33.236Z,19.05
2023-05-09T06:38:08.328Z,19.33
2023-05-09T06:40:41.079Z,19.84
2023-05-09T06:43:13.317Z,19.40
2023-05-09T06:45:45.587Z,19.20
2023-05-09T06:48:17.801Z,20.07
2023-05-09T06:50:50.294Z,19.56
2023-05-09T06:53:25.178Z,19.36
2023-05-09T06:55:57.595Z,19.92
2023-05-09T06:58:30.348Z,19.90
2023-05-09T07:01:02.693Z,19.76
2023-05-09T07:03:35.407Z,19.74
2023-05-09T07:06:07.959Z,19.28
2023-05-09T07:08:42.800Z,19.24
2023-05-09T07:11:15.066Z,19.49
2023-05-09T07:13:47.371Z,18.96
2023-05-09T07:16:23.153Z,19.34
2023-05-09T07:18:55.455Z,19.83
2023-05-09T07:21:27.660Z,19.91
2023-05-09T07:24:02.708Z,19.50
2023-05-09T07:26:35.037Z,19.31
2023-05-09T07:29:07.396Z,20.09
2023-05-09T07:31:39.696Z,21.10
2023-05-09T07:34:11.911Z,19.54
2023-05-09T07:36:44.488Z,19.67
2023-05-09T07:39:19.741Z,19.55
2023-05-09T07:41:52.006Z,19.54
2023-05-09T07:44:24.478Z,19.31
2023-05-09T07:46:59.380Z,19.69
2023-05-09T07:49:31.777Z,19.18
2023-05-09T07:52:04.357Z,19.62
2023-05-09T07:54:39.152Z,19.58
2023-05-09T07:57:11.681Z,19.61
2023-05-09T07:59:44.043Z,18.88
2023-05-09T08:02:16.253Z,18.83
2023-05-09T08:04:49.280Z,19.11
2023-05-09T08:07:21.538Z,18.54
2023-05-09T08:09:56.373Z,18.36
2023-05-09T08:12:28.568Z,18.53
2023-05-09T08:15:00.831Z,17.99
2023-05-09T08:17:33.124Z,18.17
2023-05-09T08:20:06.149Z,18.22
2023-05-09T08:22:38.476Z,17.72
2023-05-09T08:25:16.978Z,18.06
2023-05-09T08:27:51.013Z,17.06
2023-05-09T08:30:24.717Z,17.06
2023-05-09T08:32:56.999Z,17.01
2023-05-09T08:35:29.509Z,17.07
2023-05-09T08:38:01.746Z,16.17
2023-05-09T08:40:40.753Z,16.19
2023-05-09T08:43:13.636Z,15.85
2023-05-09T08:45:51.582Z,14.99
2023-05-09T08:48:24.953Z,15.16
2023-05-09T08:50:58.892Z,14.26
2023-05-09T08:53:31.257Z,14.12
2023-05-09T08:56:07.794Z,13.25
2023-05-09T08:58:40.818Z,11.76
2023-05-09T09:01:16.039Z,11.48
2023-05-09T09:03:49.740Z,11.29
2023-05-09T09:06:22.034Z,11.61
2023-05-09T09:08:56.222Z,12.07
2023-05-09T09:11:33.254Z,12.32
2023-05-09T09:14:10.651Z,12.01
2023-05-09T09:16:44.993Z,12.50
2023-05-09T09:19:22.250Z,12.09
2023-05-09T09:21:59.307Z,12.24
2023-05-09T09:24:31.563Z,11.96
2023-05-09T09:27:10.412Z,11.53
2023-05-09T09:29:42.809Z,11.42
2023-05-09T09:32:15.147Z,11.06
2023-05-09T09:34:47.567Z,11.37
2023-05-09T09:37:26.922Z,10.80
2023-05-09T09:39:59.980Z,11.09
2023-05-09T09:42:45.804Z,10.53
2023-05-09T09:45:20.070Z,10.45
2023-05-09T09:47:54.679Z,10.11
2023-05-09T09:50:27.217Z,10.24
2023-05-09T09:53:00.708Z,10.39
2023-05-09T09:55:33.964Z,10.52
2023-05-09T09:58:22.074Z,9.89
2023-05-09T10:01:09.382Z,9.95
2023-05-09T10:03:43.588Z,9.86
2023-05-09T10:06:18.104Z,9.14
2023-05-09T10:08:50.667Z,9.44
2023-05-09T10:11:22.857Z,9.60
2023-05-09T10:13:57.891Z,9.87
2023-05-09T10:16:42.774Z,9.51
2023-05-09T10:19:19.796Z,9.58
2023-05-09T10:21:58.260Z,10.09
2023-05-09T10:24:38.729Z,9.67
2023-05-09T10:27:15.045Z,10.01
2023-05-09T10:29:53.842Z,9.63
2023-05-09T10:32:35.923Z,9.79
2023-05-09T10:35:14.190Z,10.40
2023-05-09T10:37:47.572Z,9.90
2023-05-09T10:40:20.217Z,9.41
2023-05-09T10:42:52.837Z,9.59
2023-05-09T10:45:28.456Z,9.84
2023-05-09T10:48:01.889Z,10.18
2023-05-09T10:50:36.115Z,9.66
2023-05-09T10:53:21.868Z,9.67
2023-05-09T10:55:56.740Z,9.91
2023-05-09T10:58:32.148Z,9.90
2023-05-09T11:01:08.826Z,9.98
2023-05-09T11:03:56.739Z,10.10
2023-05-09T11:06:46.344Z,9.94
2023-05-09T11:09:30.088Z,9.92
2023-05-09T11:12:05.121Z,10.10
2023-05-09T11:14:42.575Z,10.06
2023-05-09T11:17:31.850Z,10.06
2023-05-09T11:20:08.366Z,9.81
2023-05-09T11:22:45.124Z,9.20
2023-05-09T11:25:20.094Z,8.94
2023-05-09T11:27:53.962Z,8.72
2023-05-09T11:30:26.156Z,8.61
2023-05-09T11:33:00.990Z,8.40
2023-05-09T11:35:33.615Z,8.48
2023-05-09T11:38:07.552Z,8.80
2023-05-09T11:40:40.267Z,8.75
2023-05-09T11:43:12.526Z,8.94
2023-05-09T11:45:45.594Z,8.97
2023-05-09T11:48:26.433Z,9.12
2023-05-09T11:50:58.616Z,9.04
2023-05-09T11:53:30.881Z,9.48
2023-05-09T11:56:07.635Z,9.77
2023-05-09T11:58:44.163Z,9.06
2023-05-09T12:01:21.670Z,8.76
2023-05-09T12:03:56.697Z,8.63
2023-05-09T12:06:30.210Z,8.24
2023-05-09T12:09:02.734Z,7.84
2023-05-09T12:11:36.894Z,8.54
2023-05-09T12:14:09.011Z,8.49
2023-05-09T12:16:49.906Z,8.33
2023-05-09T12:19:27.818Z,9.03
2023-05-09T12:22:00.781Z,9.22
2023-05-09T12:24:34.695Z,9.14
2023-05-09T12:27:08.140Z,9.02
2023-05-09T12:29:42.453Z,9.10
2023-05-09T12:32:14.838Z,8.80
2023-05-09T12:34:51.737Z,8.76
2023-05-09T12:37:24.268Z,8.43
2023-05-09T12:40:06.430Z,8.11
2023-05-09T12:42:39.863Z,8.29
2023-05-09T12:45:14.008Z,8.15
2023-05-09T12:47:49.556Z,8.79
2023-05-09T12:50:26.965Z,9.25
2023-05-09T12:53:03.342Z,9.26
2023-05-09T12:55:44.131Z,9.41
2023-05-09T12:58:19.308Z,8.96
2023-05-09T13:00:51.609Z,8.91
2023-05-09T13:03:27.652Z,9.31
2023-05-09T13:06:04.888Z,9.26
2023-05-09T13:08:37.666Z,9.22
2023-05-09T13:13:47.106Z,8.84
2023-05-09T13:16:19.413Z,8.90
2023-05-09T13:18:51.664Z,8.43
2023-05-09T13:21:26.347Z,8.19
2023-05-09T13:23:58.543Z,8.08
2023-05-09T13:26:31.129Z,7.71
2023-05-09T13:29:03.427Z,7.49
2023-05-09T13:31:35.618Z,7.76
2023-05-09T13:34:07.872Z,7.22
2023-05-09T13:36:42.732Z,6.81
2023-05-09T13:39:14.984Z,6.22
2023-05-09T13:41:51.283Z,6.46
2023-05-09T13:44:23.862Z,6.04
2023-05-09T13:46:57.895Z,6.09
2023-05-09T13:49:30.520Z,6.42
2023-05-09T13:52:05.278Z,11.27
2023-05-09T13:54:37.791Z,10.36
2023-05-09T13:57:10.490Z,11.23
2023-05-09T13:59:43.776Z,10.49
2023-05-09T14:02:16.380Z,10.75
2023-05-09T14:04:48.613Z,9.75
2023-05-09T14:07:23.496Z,8.26
2023-05-09T14:10:10.496Z,7.36
2023-05-09T14:12:44.678Z,6.90
2023-05-09T14:15:17.896Z,6.76
2023-05-09T14:17:50.222Z,6.37
2023-05-09T14:20:22.357Z,6.66
2023-05-09T14:23:00.770Z,6.81
2023-05-09T14:25:33.202Z,6.81
2023-05-09T14:28:07.103Z,6.56
2023-05-09T14:30:39.375Z,6.74
2023-05-09T14:33:11.967Z,7.31
2023-05-09T14:35:44.358Z,7.12
2023-05-09T14:38:19.333Z,6.48
2023-05-09T14:40:51.513Z,6.13
2023-05-09T14:43:24.500Z,5.69
2023-05-09T14:45:57.370Z,5.64
2023-05-09T14:48:29.688Z,5.23
2023-05-09T14:51:01.971Z,5.41
2023-05-09T14:53:41.738Z,5.08
2023-05-09T14:56:14.731Z,5.39
2023-05-09T14:58:46.925Z,5.19
2023-05-09T15:01:19.877Z,5.17
2023-05-09T15:03:52.070Z,5.07
2023-05-09T15:06:24.478Z,5.34
2023-05-09T15:08:59.378Z,5.09
2023-05-09T15:11:39.879Z,5.39
2023-05-09T15:14:19.542Z,5.29
2023-05-09T15:16:52.443Z,5.47
2023-05-09T15:19:26.443Z,5.56
2023-05-09T15:21:58.827Z,5.29
2023-05-09T15:24:33.582Z,5.30
2023-05-09T15:27:06.449Z,5.44
2023-05-09T15:29:38.881Z,5.42
2023-05-09T15:32:11.277Z,5.44
2023-05-09T15:34:43.523Z,5.55
2023-05-09T15:37:15.926Z,5.32
2023-05-09T15:39:50.751Z,5.27
2023-05-09T15:42:23.351Z,5.01
2023-05-09T15:44:55.778Z,4.64
2023-05-09T15:47:27.944Z,5.11
2023-05-09T15:50:00.316Z,5.17
2023-05-09T15:52:32.752Z,5.10
2023-05-09T15:55:08.745Z,5.16
2023-05-09T15:57:40.956Z,4.93
2023-05-09T16:00:16.623Z,4.91
2023-05-09T16:02:49.164Z,4.89
2023-05-09T16:05:22.029Z,4.51
2023-05-09T16:07:54.561Z,4.15
2023-05-09T16:10:29.505Z,4.44
2023-05-09T16:13:01.780Z,4.01
2023-05-09T16:15:34.124Z,3.89
2023-05-09T16:18:06.276Z,3.44
2023-05-09T16:20:38.499Z,3.33
2023-05-09T16:23:10.763Z,3.72
2023-05-09T16:25:45.565Z,3.33
2023-05-09T16:28:19.565Z,3.35
2023-05-09T16:30:51.701Z,3.45
2023-05-09T16:33:23.856Z,3.69
2023-05-09T16:35:56.281Z,3.76
2023-05-09T16:38:28.609Z,3.76
2023-05-09T16:41:03.376Z,3.94
2023-05-09T16:43:35.572Z,4.14
2023-05-09T16:46:08.324Z,4.24
2023-05-09T16:48:40.657Z,4.34
2023-05-09T16:51:12.982Z,4.55
2023-05-09T16:53:45.178Z,4.47
2023-05-09T16:56:19.954Z,4.52
2023-05-09T16:58:52.197Z,4.73
2023-05-09T17:01:24.511Z,4.81
2023-05-09T17:03:56.777Z,5.19
2023-05-09T17:06:29.000Z,5.29
2023-05-09T17:09:01.543Z,5.24
2023-05-09T17:11:36.275Z,5.46
2023-05-09T17:14:08.430Z,5.24
2023-05-09T17:16:40.679Z,5.81
2023-05-09T17:19:12.901Z,5.89
2023-05-09T17:21:45.014Z,5.46
2023-05-09T17:24:17.411Z,5.92
2023-05-09T17:26:52.834Z,6.04
2023-05-09T17:29:26.715Z,6.08
2023-05-09T17:32:00.973Z,6.16
2023-05-09T17:34:33.694Z,6.42
2023-05-09T17:37:06.023Z,6.60
2023-05-09T17:39:38.515Z,6.57
2023-05-09T17:42:13.338Z,6.47
2023-05-09T17:44:45.554Z,6.74
2023-05-09T17:47:18.796Z,7.09
2023-05-09T17:49:50.956Z,7.02
2023-05-09T17:52:23.155Z,7.23
2023-05-09T17:54:55.491Z,7.66
2023-05-09T17:57:30.291Z,7.49
2023-05-09T18:00:02.452Z,8.20
2023-05-09T18:02:34.712Z,8.01
2023-05-09T18:05:06.950Z,8.37
2023-05-09T18:07:39.204Z,7.73
2023-05-09T18:10:13.536Z,7.36
2023-05-09T18:12:48.644Z,7.34
2023-05-09T18:15:20.873Z,7.39
2023-05-09T18:17:54.930Z,7.09
2023-05-09T18:20:27.181Z,7.21
2023-05-09T18:22:59.629Z,7.34
2023-05-09T18:25:31.865Z,7.33
2023-05-09T18:28:06.721Z,7.54
2023-05-09T18:30:39.251Z,7.66
2023-05-09T18:33:12.750Z,7.23
2023-05-09T18:35:44.907Z,7.06
2023-05-09T18:38:17.049Z,6.82
2023-05-09T18:40:49.872Z,6.54
2023-05-09T18:43:24.626Z,6.76
2023-05-09T18:45:56.804Z,6.81
2023-05-09T18:48:29.020Z,6.56
2023-05-09T18:51:01.293Z,7.07
2023-05-09T18:53:33.553Z,7.24
2023-05-09T18:56:05.937Z,7.86
2023-05-09T18:58:41.588Z,7.59
2023-05-09T19:01:14.316Z,7.99
2023-05-09T19:03:47.726Z,7.69
2023-05-09T19:06:20.204Z,7.64
2023-05-09T19:08:53.945Z,7.57
2023-05-09T19:11:26.128Z,7.84
2023-05-09T19:14:00.976Z,7.84
2023-05-09T19:16:33.322Z,8.19
2023-05-09T19:19:05.662Z,8.00
2023-05-09T19:21:38.286Z,8.34
2023-05-09T19:24:11.346Z,8.22
2023-05-09T19:26:43.790Z,8.43
2023-05-09T19:29:18.532Z,8.57
2023-05-09T19:31:50.723Z,8.30
2023-05-09T19:34:23.080Z,8.29
2023-05-09T19:36:55.483Z,7.43
2023-05-09T19:39:28.972Z,6.71
2023-05-09T19:42:01.215Z,6.36
2023-05-09T19:44:35.975Z,6.27
2023-05-09T19:47:09.242Z,6.63
2023-05-09T19:49:43.031Z,6.02
2023-05-09T19:52:15.313Z,5.54
2023-05-09T19:54:47.516Z,5.12
2023-05-09T19:57:20.744Z,4.94
2023-05-09T19:59:56.236Z,4.64
2023-05-09T20:02:28.709Z,4.85
2023-05-09T20:05:00.885Z,4.69
2023-05-09T20:07:33.212Z,4.93
2023-05-09T20:10:05.544Z,5.07
2023-05-09T20:12:37.844Z,5.36
2023-05-09T20:15:13.756Z,5.51
2023-05-09T20:17:46.625Z,5.91
2023-05-09T20:20:19.088Z,6.13
2023-05-09T20:22:51.620Z,6.36
2023-05-09T20:25:24.517Z,6.51
2023-05-09T20:27:56.957Z,6.25
2023-05-09T20:30:31.903Z,5.80
2023-05-09T20:33:04.337Z,5.34
2023-05-09T20:35:36.821Z,5.18
2023-05-09T20:38:09.196Z,5.48
2023-05-09T20:40:42.163Z,5.28
2023-05-09T20:43:14.492Z,5.41
2023-05-09T20:45:50.195Z,5.49
2023-05-09T20:48:23.737Z,5.42
2023-05-09T20:50:56.087Z,5.57
2023-05-09T20:53:31.421Z,5.78
2023-05-09T20:56:04.244Z,5.76
2023-05-09T20:58:38.205Z,5.89
2023-05-09T21:01:13.950Z,6.09
2023-05-09T21:03:46.299Z,6.09
2023-05-09T21:06:18.732Z,6.81
2023-05-09T21:08:51.275Z,6.91
2023-05-09T21:11:23.567Z,7.35
2023-05-09T21:13:55.883Z,7.37
2023-05-09T21:16:31.014Z,7.28
2023-05-09T21:19:05.299Z,8.09
2023-05-09T21:21:37.707Z,8.64
2023-05-09T21:24:10.877Z,8.69
2023-05-09T21:26:43.895Z,8.89
2023-05-09T21:29:16.239Z,8.69
2023-05-09T21:31:51.166Z,9.26
2023-05-09T21:34:23.645Z,9.79
2023-05-09T21:36:56.000Z,10.10
2023-05-09T21:39:28.333Z,10.21
2023-05-09T21:42:00.685Z,10.91
2023-05-09T21:44:33.010Z,10.71
2023-05-09T21:47:08.527Z,10.91
2023-05-09T21:49:41.263Z,10.93
2023-05-09T21:52:13.553Z,11.26
2023-05-09T21:54:45.893Z,11.06
2023-05-09T21:57:18.400Z,11.36
2023-05-09T21:59:50.544Z,11.41
2023-05-09T22:02:25.406Z,11.16
2023-05-09T22:04:57.843Z,11.61
2023-05-09T22:07:30.103Z,11.78
2023-05-09T22:10:02.299Z,11.49
2023-05-09T22:12:34.760Z,11.96
2023-05-09T22:15:07.681Z,11.64
2023-05-09T22:17:42.501Z,11.86
2023-05-09T22:20:16.502Z,12.17
2023-05-09T22:22:48.892Z,12.09
2023-05-09T22:25:21.530Z,12.37
2023-05-09T22:27:53.717Z,12.06
2023-05-09T22:30:26.112Z,12.21
2023-05-09T22:33:01.986Z,12.35
2023-05-09T22:35:34.431Z,12.73
2023-05-09T22:38:06.688Z,12.61
2023-05-09T22:40:39.017Z,13.30
2023-05-09T22:43:11.824Z,13.48
2023-05-09T22:45:44.152Z,13.39
2023-05-09T22:48:18.989Z,13.62
2023-05-09T22:50:51.255Z,13.51
2023-05-09T22:53:23.510Z,14.32
2023-05-09T22:55:55.898Z,14.93
2023-05-09T22:58:28.165Z,14.87
2023-05-09T23:01:00.432Z,14.91
2023-05-09T23:03:35.229Z,15.26
2023-05-09T23:06:07.950Z,15.61
2023-05-09T23:08:40.158Z,15.62
2023-05-09T23:11:12.564Z,16.31
2023-05-09T23:13:45.074Z,15.66
2023-05-09T23:16:17.635Z,15.42
2023-05-09T23:18:52.489Z,15.53
2023-05-09T23:21:24.785Z,15.51
2023-05-09T23:23:57.016Z,15.94
2023-05-09T23:26:29.457Z,15.55
2023-05-09T23:29:01.795Z,16.13
2023-05-09T23:31:34.019Z,16.14
2023-05-09T23:34:08.795Z,16.36
2023-05-09T23:36:41.153Z,17.24
2023-05-09T23:39:13.353Z,16.53
2023-05-09T23:41:45.603Z,16.93
2023-05-09T23:44:17.854Z,17.29
2023-05-09T23:46:50.340Z,17.03
2023-05-09T23:49:25.223Z,16.81
2023-05-09T23:51:57.484Z,17.63
2023-05-09T23:54:29.837Z,18.02
2023-05-09T23:57:02.167Z,18.40
2023-05-09T23:59:34.420Z,18.55
